»·PEaware :: N4922Z KBOI-KGEG

N4922Z :: KBOI-KGEG

FLIGHT INFORMATION

Flight Status: Arrived
Operator: Privately registered:
United States
More flights under this callsign
Pilot: William N. (15320)
Aircraft: MITSUBISHI MU-2 MARQUISE
(MU2)
More flights by this aircraft type
Origin: KBOI Boise Air Terminal/Gowen
United States
Destination: KGEG Spokane Intl
United States
More flights between these airports :: More routes between these airports
Route: BOI3 DEETZ ODYSY GEG KGEG
File this flight plan on PilotEdge
Remarks:
Altitude:
(Current/Filed)
16,000ft
Speed:
(Current/Filed)
275kts
Departed: 10-Mar-18 11:43 AM
Arrived: 10-Mar-18 12:55 PM
Distance/Time
Traveled:
249nm/1:12
Distance/Time
To Go:
Arrived

Flight Plot

Page will automatically refresh every two minutes.

Flight plan parsing failed; only flown route is shown


Map Options




Map Legend


Flown Route
Filed Route
Departure Airport
Arrival Airport
Navaid (VOR, NDB)
Fix

Horizontal Profiles

Position Reports

Time Latitude Longitude Heading Altitude Ground
Speed
10-Mar-18 11:21 43.569727 -116.226353 3 2842ft 0kts
10-Mar-18 11:21 43.569727 -116.226353 3 2842ft 0kts
10-Mar-18 11:23 43.569727 -116.226353 3 2842ft 0kts
10-Mar-18 11:24 43.569727 -116.226353 3 2842ft 0kts
10-Mar-18 11:25 43.569727 -116.226353 3 2842ft 0kts
10-Mar-18 11:26 43.569727 -116.226353 3 2842ft 0kts
10-Mar-18 11:27 43.569727 -116.226353 3 2842ft 0kts
10-Mar-18 11:28 43.569727 -116.226353 3 2842ft 0kts
10-Mar-18 11:29 43.569727 -116.226353 3 2842ft 0kts
10-Mar-18 11:30 43.569727 -116.226353 3 2842ft 0kts
10-Mar-18 11:31 43.569727 -116.226353 3 2842ft 0kts
10-Mar-18 11:32 43.569727 -116.226353 3 2842ft 0kts
10-Mar-18 11:33 43.569727 -116.226353 3 2842ft 0kts
10-Mar-18 11:34 43.569727 -116.226353 3 2842ft 0kts
10-Mar-18 11:35 43.569727 -116.226353 3 2842ft 0kts
10-Mar-18 11:36 43.569727 -116.226353 3 2842ft 0kts
10-Mar-18 11:37 43.569907 -116.226892 272 2842ft 0kts
10-Mar-18 11:38 43.568661 -116.228633 281 2842ft 10kts
10-Mar-18 11:39 43.570935 -116.235327 291 2842ft 6kts
10-Mar-18 11:40 43.570865 -116.235820 232 2842ft 0kts
10-Mar-18 11:41 43.570798 -116.235916 219 2842ft 4kts
10-Mar-18 11:42 43.567704 -116.229420 115 2842ft 111kts
10-Mar-18 11:43 43.546563 -116.176813 115 4408ft 185kts
10-Mar-18 11:44 43.524560 -116.110432 115 6666ft 195kts
10-Mar-18 11:45 43.502544 -116.045016 115 9174ft 186kts
10-Mar-18 11:46 43.480501 -115.980440 121 11544ft 189kts
10-Mar-18 11:47 43.450274 -116.005815 287 13789ft 201kts
10-Mar-18 11:48 43.472918 -116.076442 316 15938ft 214kts
10-Mar-18 11:49 43.541197 -116.073057 4 16013ft 286kts
10-Mar-18 11:50 43.624947 -116.071620 0 16005ft 312kts
10-Mar-18 11:51 43.712845 -116.072509 0 16005ft 320kts
10-Mar-18 11:52 43.802031 -116.073467 0 16008ft 321kts
10-Mar-18 11:53 43.891376 -116.074434 0 16005ft 322kts
10-Mar-18 11:54 43.980728 -116.075401 0 16003ft 322kts
10-Mar-18 11:55 44.069012 -116.076356 0 16002ft 314kts
10-Mar-18 11:56 44.155611 -116.077293 0 16001ft 311kts
10-Mar-18 11:57 44.241563 -116.074090 5 16002ft 310kts
10-Mar-18 11:58 44.327506 -116.063425 5 15947ft 310kts
10-Mar-18 11:59 44.411366 -116.074859 340 15947ft 309kts
10-Mar-18 12:00 44.492690 -116.113225 341 15947ft 309kts
10-Mar-18 12:01 44.574156 -116.151236 341 15948ft 309kts
10-Mar-18 12:02 44.653822 -116.188427 341 15947ft 309kts
10-Mar-18 12:03 44.735231 -116.226541 341 15948ft 309kts
10-Mar-18 12:04 44.816683 -116.264767 341 15947ft 309kts
10-Mar-18 12:05 44.897997 -116.303004 341 16296ft 297kts
10-Mar-18 12:06 44.978831 -116.340790 338 16130ft 310kts
10-Mar-18 12:07 45.061624 -116.379818 339 15934ft 316kts
10-Mar-18 12:08 45.143368 -116.419244 341 15901ft 315kts
10-Mar-18 12:09 45.226423 -116.457222 342 15909ft 314kts
10-Mar-18 12:10 45.308289 -116.498202 341 15981ft 311kts
10-Mar-18 12:11 45.390526 -116.537024 342 15960ft 311kts
10-Mar-18 12:12 45.472445 -116.577993 338 15954ft 311kts
10-Mar-18 12:13 45.553122 -116.622605 336 15943ft 312kts
10-Mar-18 12:14 45.634990 -116.655825 348 16034ft 308kts
10-Mar-18 12:15 45.717438 -116.683391 341 16051ft 314kts
10-Mar-18 12:16 45.797724 -116.730987 334 15993ft 314kts
10-Mar-18 12:17 45.879063 -116.774617 339 16014ft 313kts
10-Mar-18 12:18 45.961524 -116.814466 340 15941ft 317kts
10-Mar-18 12:19 46.043394 -116.859430 340 16046ft 311kts
10-Mar-18 12:20 46.124987 -116.895217 341 16068ft 314kts
10-Mar-18 12:21 46.206743 -116.936163 340 16209ft 311kts
10-Mar-18 12:22 46.289889 -116.976957 340 16072ft 315kts
10-Mar-18 12:23 46.373087 -117.017465 341 15959ft 316kts
10-Mar-18 12:24 46.455516 -117.058879 340 15963ft 315kts
10-Mar-18 12:25 46.537970 -117.100654 341 15914ft 316kts
10-Mar-18 12:26 46.621766 -117.135738 344 15969ft 314kts
10-Mar-18 12:27 46.705869 -117.168013 343 16002ft 314kts
10-Mar-18 12:28 46.784426 -117.219763 323 16050ft 310kts
10-Mar-18 12:29 46.864587 -117.266637 337 16001ft 315kts
10-Mar-18 12:30 46.947223 -117.307982 340 16022ft 315kts
10-Mar-18 12:31 47.030130 -117.350239 340 16023ft 316kts
10-Mar-18 12:32 47.111659 -117.392229 340 16019ft 316kts
10-Mar-18 12:33 47.192634 -117.433646 340 15990ft 287kts
10-Mar-18 12:34 47.265223 -117.471090 340 14355ft 272kts
10-Mar-18 12:35 47.334209 -117.506737 339 12985ft 254kts
10-Mar-18 12:36 47.401450 -117.541163 341 11222ft 257kts
10-Mar-18 12:37 47.470045 -117.574554 341 9181ft 264kts
10-Mar-18 12:38 47.477999 -117.662353 236 7043ft 258kts
10-Mar-18 12:39 47.439601 -117.751385 235 5074ft 257kts
10-Mar-18 12:40 47.401848 -117.837256 235 3957ft 226kts
10-Mar-18 12:41 47.371386 -117.907099 235 3965ft 191kts
10-Mar-18 12:42 47.341328 -117.975855 235 3969ft 209kts
10-Mar-18 12:43 47.360910 -118.029106 24 3967ft 197kts
10-Mar-18 12:44 47.399847 -117.985203 42 3964ft 169kts
10-Mar-18 12:45 47.436377 -117.939748 41 3965ft 174kts
10-Mar-18 12:46 47.473339 -117.893891 42 3964ft 173kts
10-Mar-18 12:47 47.510027 -117.848249 41 3964ft 172kts
10-Mar-18 12:48 47.532963 -117.789113 74 3965ft 169kts
10-Mar-18 12:49 47.546001 -117.722352 74 3968ft 162kts
10-Mar-18 12:50 47.557481 -117.663345 73 3955ft 127kts
10-Mar-18 12:51 47.566593 -117.617426 65 3709ft 116kts
10-Mar-18 12:52 47.588338 -117.583263 46 3147ft 100kts
10-Mar-18 12:53 47.608588 -117.552505 47 2470ft 97kts
10-Mar-18 12:54 47.618098 -117.537108 91 2363ft 15kts
10-Mar-18 12:55 47.618069 -117.536066 93 2363ft 1kts
10-Mar-18 12:56 47.617981 -117.533260 91 2363ft 14kts
10-Mar-18 12:57 47.619001 -117.528444 83 2363ft 12kts
10-Mar-18 12:58 47.618829 -117.527707 179 2363ft 0kts

Navigation Log

Ident Type
Flight plan parsing failed, navigation log unavailable